Valkama — LE2324 — position and weather

sailwx.info

Track history (hours):
 
Tides and Currents Weather Stations Pressure Air Temp Water Temp Dewpoint Dewpoint Depression Visibility Wind Speed Wind Dir Waves Ship Positions

Valkama

Last reported at 2018-Jan-21 10:37 UTC. Time now 2018-Feb-22 03:23 UTC.
Position N 28°24' W 016°16'.
Warning: this ship's position is 31 days out of date.

Length 11 m.

Type: Sailing vessel. MMSI: 257868280.

Date/timePositionNaut miles runAvg speedWind from/ knotsBaromVisibWave heightAir tempDewpointWater temp
2018-Jan-21 10:37N 28°24' W 016°16'1 5.7
2018-Jan-21 10:27N 28°25' W 016°16'3 5.7
2018-Jan-21 10:00N 28°27' W 016°15'1 2.4
2018-Jan-21 09:30N 28°28' W 016°15'0 0.8
2018-Jan-21 08:58N 28°28' W 016°15'0 0.0
2018-Jan-21 08:28N 28°28' W 016°15'0 0.0
2018-Jan-21 07:52N 28°28' W 016°15'0 0.0
2018-Jan-21 07:28N 28°28' W 016°15'0 0.0
2018-Jan-21 06:58N 28°28' W 016°15'0 0.0
2018-Jan-21 06:28N 28°28' W 016°15'0 0.2
2018-Jan-21 06:00N 28°28' W 016°15'0 0.2
2018-Jan-21 05:29N 28°28' W 016°15'0 0.1
2018-Jan-21 05:00N 28°28' W 016°15'0 0.1
2018-Jan-21 04:30N 28°28' W 016°15'0 0.7
2018-Jan-21 04:00N 28°28' W 016°15'0 0.6
2018-Jan-21 03:26N 28°28' W 016°15'0 0.0
2018-Jan-21 02:56N 28°28' W 016°15'0 0.0
2018-Jan-21 02:26N 28°28' W 016°15'0 0.0
2018-Jan-21 01:56N 28°28' W 016°15'0 0.0
2018-Jan-21 01:26N 28°28' W 016°15'0 0.0
2018-Jan-21 00:56N 28°28' W 016°15'0 0.0
2018-Jan-21 00:26N 28°28' W 016°15'0 0.0
2018-Jan-20 23:56N 28°28' W 016°15'0 0.0
2018-Jan-20 23:26N 28°28' W 016°15'0 0.0
2018-Jan-20 22:56N 28°28' W 016°15'0 0.0
2018-Jan-20 22:26N 28°28' W 016°15'0 0.0
2018-Jan-20 21:56N 28°28' W 016°15'0 0.0
2018-Jan-20 21:26N 28°28' W 016°15'0 0.0
2018-Jan-18 18:59N 28°28' W 016°15'1 1.9
2018-Jan-18 18:29N 28°28' W 016°14'3 5.8
2018-Jan-18 17:59N 28°29' W 016°11'1 0.3
2018-Jan-18 13:22N 28°30' W 016°09'2 5.0
2018-Jan-18 12:57N 28°29' W 016°11'2 4.2
2018-Jan-18 12:30N 28°28' W 016°13'1 2.3
2018-Jan-18 12:00N 28°28' W 016°15'0 0.2
2018-Jan-18 11:29N 28°28' W 016°15'0 0.0
2018-Jan-18 10:59N 28°28' W 016°15'  
Track history (hours):
 
Tides and Currents Weather Stations Pressure Air Temp Water Temp Dewpoint Dewpoint Depression Visibility Wind Speed Wind Dir Waves Ship Positions

Valkama

Last reported at 2018-Jan-21 10:37 UTC. Time now 2018-Feb-22 03:23 UTC.
Position N 28°24' W 016°16'.
Warning: this ship's position is 31 days out of date.

Length 11 m.

Type: Sailing vessel. MMSI: 257868280.

Date/timePositionNaut miles runAvg speedWind from/ knotsBaromVisibWave heightAir tempDewpointWater temp
2018-Jan-21 10:37N 28°24' W 016°16'1 5.7
2018-Jan-21 10:27N 28°25' W 016°16'3 5.7
2018-Jan-21 10:00N 28°27' W 016°15'1 2.4
2018-Jan-21 09:30N 28°28' W 016°15'0 0.8
2018-Jan-21 08:58N 28°28' W 016°15'0 0.0
2018-Jan-21 08:28N 28°28' W 016°15'0 0.0
2018-Jan-21 07:52N 28°28' W 016°15'0 0.0
2018-Jan-21 07:28N 28°28' W 016°15'0 0.0
2018-Jan-21 06:58N 28°28' W 016°15'0 0.0
2018-Jan-21 06:28N 28°28' W 016°15'0 0.2
2018-Jan-21 06:00N 28°28' W 016°15'0 0.2
2018-Jan-21 05:29N 28°28' W 016°15'0 0.1
2018-Jan-21 05:00N 28°28' W 016°15'0 0.1
2018-Jan-21 04:30N 28°28' W 016°15'0 0.7
2018-Jan-21 04:00N 28°28' W 016°15'0 0.6
2018-Jan-21 03:26N 28°28' W 016°15'0 0.0
2018-Jan-21 02:56N 28°28' W 016°15'0 0.0
2018-Jan-21 02:26N 28°28' W 016°15'0 0.0
2018-Jan-21 01:56N 28°28' W 016°15'0 0.0
2018-Jan-21 01:26N 28°28' W 016°15'0 0.0
2018-Jan-21 00:56N 28°28' W 016°15'0 0.0
2018-Jan-21 00:26N 28°28' W 016°15'0 0.0
2018-Jan-20 23:56N 28°28' W 016°15'0 0.0
2018-Jan-20 23:26N 28°28' W 016°15'0 0.0
2018-Jan-20 22:56N 28°28' W 016°15'0 0.0
2018-Jan-20 22:26N 28°28' W 016°15'0 0.0
2018-Jan-20 21:56N 28°28' W 016°15'0 0.0
2018-Jan-20 21:26N 28°28' W 016°15'0 0.0
2018-Jan-18 18:59N 28°28' W 016°15'1 1.9
2018-Jan-18 18:29N 28°28' W 016°14'3 5.8
2018-Jan-18 17:59N 28°29' W 016°11'1 0.3
2018-Jan-18 13:22N 28°30' W 016°09'2 5.0
2018-Jan-18 12:57N 28°29' W 016°11'2 4.2
2018-Jan-18 12:30N 28°28' W 016°13'1 2.3
2018-Jan-18 12:00N 28°28' W 016°15'0 0.2
2018-Jan-18 11:29N 28°28' W 016°15'0 0.0
2018-Jan-18 10:59N 28°28' W 016°15'  

Dump ship's entire track history